PWSweather.com
Personal Weather Stations
Station Observations
KMAMEDFI2
Medfield, MA 02052

Medfield, MA 02052

Lat: 42.1900822, Lon: -71.3296889

Elevation: 138

Station Type: Rainwise WS MK-III

http://www.medfieldweather.com

High Low Average
Temperature 36.7°F2.6°C 22.5°F-5.3°C 28.1°F-2.2°C
Dew Point 23.7°F-4.6°C 4.4°F-15.3°C 12.8°F-10.7°C
Winds 4.6 mph 7.4 kmh Calm Calm 1.0 mph S1.6 kmh S
Wind Gusts 9.2 mph14.8 kmh -- 2.0 mph3.2 kmh
Humidity 86% 26% 55%
Pressure 30.30 in1026.1 mb 30.07 in1018.3 mb -
Precipitation 0.00 in0.0 mm - -
Hour Temp Dew Point Humidity Winds Wind Gusts Pressure Precip Precip Rate Daily Precip Total
12:00 AM 32.2°F0.1°C 27.6°F-2.4°C 83% 1.2 mph WSW1.9 kmh WSW 2.3 mph3.7 kmh 30.05 in1017.6 mb - 0.00 in0.0 mm 0.34 in8.6 mm
12:10 AM 31.9°F-0.1°C 26.7°F-2.9°C 81% 2.3 mph NNW3.7 kmh NNW 4.6 mph7.4 kmh 30.06 in1017.9 mb - 0.00 in0.0 mm 0.34 in8.6 mm
12:20 AM 31.8°F-0.1°C 25.7°F-3.5°C 78% 2.3 mph NNW3.7 kmh NNW 2.3 mph3.7 kmh 30.06 in1017.9 mb - 0.00 in0.0 mm 0.34 in8.6 mm
12:30 AM 31.5°F-0.3°C 25.1°F-3.8°C 77% 2.3 mph WSW3.7 kmh WSW 2.3 mph3.7 kmh 30.06 in1017.9 mb - 0.00 in0.0 mm 0.34 in8.6 mm
12:40 AM 31.1°F-0.5°C 24.4°F-4.2°C 76% 2.3 mph NW3.7 kmh NW 4.6 mph7.4 kmh 30.07 in1018.3 mb - 0.00 in0.0 mm 0.34 in8.6 mm
12:50 AM 31.4°F-0.3°C 24.1°F-4.4°C 74% 3.5 mph WNW5.6 kmh WNW 2.3 mph3.7 kmh 30.07 in1018.3 mb - 0.00 in0.0 mm 0.34 in8.6 mm
01:00 AM 31.0°F-0.6°C 23.7°F-4.6°C 74% 2.3 mph ENE3.7 kmh ENE 2.3 mph3.7 kmh 30.07 in1018.3 mb - 0.00 in0.0 mm 0.00 in0.0 mm
01:10 AM 30.0°F-1.1°C 23.3°F-4.8°C 76% Calm Calm -- 30.08 in1018.6 mb - 0.00 in0.0 mm 0.00 in0.0 mm
01:20 AM 29.5°F-1.4°C 22.3°F-5.4°C 74% 4.6 mph WSW7.4 kmh WSW 8.1 mph13.0 kmh 30.09 in1019.0 mb - 0.00 in0.0 mm 0.00 in0.0 mm
01:30 AM 30.1°F-1.1°C 21.8°F-5.7°C 71% 2.3 mph WNW3.7 kmh WNW 8.1 mph13.0 kmh 30.09 in1019.0 mb - 0.00 in0.0 mm 0.00 in0.0 mm
01:40 AM 30.5°F-0.8°C 20.8°F-6.2°C 67% 4.6 mph WSW7.4 kmh WSW 6.9 mph11.1 kmh 30.09 in1019.0 mb - 0.00 in0.0 mm 0.00 in0.0 mm
01:50 AM 30.3°F-0.9°C 19.9°F-6.7°C 65% 2.3 mph NW3.7 kmh NW 8.1 mph13.0 kmh 30.10 in1019.3 mb - 0.00 in0.0 mm 0.00 in0.0 mm
02:00 AM 29.6°F-1.3°C 19.3°F-7.1°C 65% 1.2 mph WSW1.9 kmh WSW 1.2 mph1.9 kmh 30.11 in1019.6 mb - 0.00 in0.0 mm 0.00 in0.0 mm
02:10 AM 29.1°F-1.6°C 19.5°F-6.9°C 67% 1.2 mph S1.9 kmh S 2.3 mph3.7 kmh 30.12 in1020.0 mb - 0.00 in0.0 mm 0.00 in0.0 mm
02:20 AM 29.3°F-1.5°C 17.5°F-8.1°C 61% 3.5 mph N5.6 kmh N 2.3 mph3.7 kmh 30.12 in1020.0 mb - 0.00 in0.0 mm 0.00 in0.0 mm
02:30 AM 29.1°F-1.6°C 17.3°F-8.2°C 61% 1.2 mph NNE1.9 kmh NNE 1.2 mph1.9 kmh 30.13 in1020.3 mb - 0.00 in0.0 mm 0.00 in0.0 mm
02:40 AM 28.6°F-1.9°C 17.6°F-8.0°C 63% 1.2 mph SW1.9 kmh SW 2.3 mph3.7 kmh 30.13 in1020.3 mb - 0.00 in0.0 mm 0.00 in0.0 mm
02:50 AM 28.4°F-2.0°C 17.0°F-8.3°C 62% 2.3 mph NW3.7 kmh NW 2.3 mph3.7 kmh 30.12 in1020.0 mb - 0.00 in0.0 mm 0.00 in0.0 mm
03:00 AM 27.9°F-2.3°C 16.6°F-8.6°C 62% 1.2 mph NE1.9 kmh NE 2.3 mph3.7 kmh 30.13 in1020.3 mb - 0.00 in0.0 mm 0.00 in0.0 mm
03:10 AM 27.9°F-2.3°C 15.8°F-9.0°C 60% 3.5 mph WNW5.6 kmh WNW 5.8 mph9.3 kmh 30.13 in1020.3 mb - 0.00 in0.0 mm 0.00 in0.0 mm
03:20 AM 28.1°F-2.2°C 15.6°F-9.1°C 59% 4.6 mph W7.4 kmh W 5.8 mph9.3 kmh 30.13 in1020.3 mb - 0.00 in0.0 mm 0.00 in0.0 mm
03:30 AM 28.1°F-2.2°C 16.0°F-8.9°C 60% 2.3 mph NNW3.7 kmh NNW 2.3 mph3.7 kmh 30.14 in1020.7 mb - 0.00 in0.0 mm 0.00 in0.0 mm
03:40 AM 27.8°F-2.3°C 15.7°F-9.1°C 60% 2.3 mph W3.7 kmh W 4.6 mph7.4 kmh 30.15 in1021.0 mb - 0.00 in0.0 mm 0.00 in0.0 mm
03:50 AM 27.5°F-2.5°C 15.4°F-9.2°C 60% 1.2 mph W1.9 kmh W 2.3 mph3.7 kmh 30.15 in1021.0 mb - 0.00 in0.0 mm 0.00 in0.0 mm
04:00 AM 27.2°F-2.7°C 15.1°F-9.4°C 60% 2.3 mph WSW3.7 kmh WSW 2.3 mph3.7 kmh 30.16 in1021.3 mb - 0.00 in0.0 mm 0.00 in0.0 mm
04:10 AM 27.3°F-2.6°C 15.2°F-9.3°C 60% 2.3 mph W3.7 kmh W 5.8 mph9.3 kmh 30.16 in1021.3 mb - 0.00 in0.0 mm 0.00 in0.0 mm
04:20 AM 27.4°F-2.6°C 14.9°F-9.5°C 59% 2.3 mph WSW3.7 kmh WSW 6.9 mph11.1 kmh 30.16 in1021.3 mb - 0.00 in0.0 mm 0.00 in0.0 mm
04:30 AM 27.3°F-2.6°C 14.8°F-9.6°C 59% 2.3 mph WSW3.7 kmh WSW 4.6 mph7.4 kmh 30.16 in1021.3 mb - 0.00 in0.0 mm 0.00 in0.0 mm
04:40 AM 26.9°F-2.8°C 14.9°F-9.5°C 60% 4.6 mph NW7.4 kmh NW 2.3 mph3.7 kmh 30.16 in1021.3 mb - 0.00 in0.0 mm 0.00 in0.0 mm
04:50 AM 26.8°F-2.9°C 15.5°F-9.2°C 62% 2.3 mph W3.7 kmh W 2.3 mph3.7 kmh 30.17 in1021.7 mb - 0.00 in0.0 mm 0.00 in0.0 mm
05:00 AM 26.6°F-3.0°C 15.7°F-9.1°C 63% Calm Calm -- 30.17 in1021.7 mb - 0.00 in0.0 mm 0.00 in0.0 mm
05:10 AM 26.6°F-3.0°C 14.9°F-9.5°C 61% 2.3 mph WSW3.7 kmh WSW 4.6 mph7.4 kmh 30.17 in1021.7 mb - 0.00 in0.0 mm 0.00 in0.0 mm
05:20 AM 26.7°F-2.9°C 15.0°F-9.4°C 61% 3.5 mph W5.6 kmh W 5.8 mph9.3 kmh 30.17 in1021.7 mb - 0.00 in0.0 mm 0.00 in0.0 mm
05:30 AM 26.6°F-3.0°C 14.6°F-9.7°C 60% Calm Calm 2.3 mph3.7 kmh 30.17 in1021.7 mb - 0.00 in0.0 mm 0.00 in0.0 mm
05:40 AM 26.4°F-3.1°C 13.2°F-10.4°C 57% 2.3 mph NNE3.7 kmh NNE 5.8 mph9.3 kmh 30.17 in1021.7 mb - 0.00 in0.0 mm 0.00 in0.0 mm
05:50 AM 26.1°F-3.3°C 12.5°F-10.8°C 56% 4.6 mph WSW7.4 kmh WSW 9.2 mph14.8 kmh 30.18 in1022.0 mb - 0.00 in0.0 mm 0.00 in0.0 mm
06:00 AM 25.9°F-3.4°C 12.7°F-10.7°C 57% 1.2 mph WSW1.9 kmh WSW 4.6 mph7.4 kmh 30.18 in1022.0 mb - 0.00 in0.0 mm 0.00 in0.0 mm
06:10 AM 25.3°F-3.7°C 12.6°F-10.8°C 58% 2.3 mph WSW3.7 kmh WSW 2.3 mph3.7 kmh 30.18 in1022.0 mb - 0.00 in0.0 mm 0.00 in0.0 mm
06:20 AM 25.0°F-3.9°C 13.1°F-10.5°C 60% 1.2 mph WSW1.9 kmh WSW 1.2 mph1.9 kmh 30.18 in1022.0 mb - 0.00 in0.0 mm 0.00 in0.0 mm
06:30 AM 25.1°F-3.8°C 12.4°F-10.9°C 58% 2.3 mph N3.7 kmh N 2.3 mph3.7 kmh 30.20 in1022.7 mb - 0.00 in0.0 mm 0.00 in0.0 mm
06:40 AM 25.1°F-3.8°C 12.4°F-10.9°C 58% 2.3 mph WNW3.7 kmh WNW 6.9 mph11.1 kmh 30.20 in1022.7 mb - 0.00 in0.0 mm 0.00 in0.0 mm
06:50 AM 25.7°F-3.5°C 11.7°F-11.3°C 55% 3.5 mph W5.6 kmh W 2.3 mph3.7 kmh 30.21 in1023.0 mb - 0.00 in0.0 mm 0.00 in0.0 mm
07:00 AM 26.1°F-3.3°C 12.1°F-11.1°C 55% 3.5 mph W5.6 kmh W 9.2 mph14.8 kmh 30.22 in1023.4 mb - 0.00 in0.0 mm 0.00 in0.0 mm
07:10 AM 26.3°F-3.2°C 11.5°F-11.4°C 53% 2.3 mph NE3.7 kmh NE 2.3 mph3.7 kmh 30.22 in1023.4 mb - 0.00 in0.0 mm 0.00 in0.0 mm
07:20 AM 26.3°F-3.2°C 11.5°F-11.4°C 53% 2.3 mph WNW3.7 kmh WNW 2.3 mph3.7 kmh 30.22 in1023.4 mb - 0.00 in0.0 mm 0.00 in0.0 mm
07:30 AM 25.9°F-3.4°C 11.5°F-11.4°C 54% 2.3 mph SW3.7 kmh SW 2.3 mph3.7 kmh 30.24 in1024.0 mb - 0.00 in0.0 mm 0.00 in0.0 mm
07:40 AM 25.7°F-3.5°C 11.4°F-11.4°C 54% 1.2 mph WSW1.9 kmh WSW 2.3 mph3.7 kmh 30.25 in1024.4 mb - 0.00 in0.0 mm 0.00 in0.0 mm
07:50 AM 25.4°F-3.7°C 11.5°F-11.4°C 55% 1.2 mph WNW1.9 kmh WNW 1.2 mph1.9 kmh 30.26 in1024.7 mb - 0.00 in0.0 mm 0.00 in0.0 mm
08:00 AM 25.4°F-3.7°C 11.5°F-11.4°C 55% 2.3 mph WSW3.7 kmh WSW 2.3 mph3.7 kmh 30.27 in1025.1 mb - 0.00 in0.0 mm 0.00 in0.0 mm
08:10 AM 25.1°F-3.8°C 11.2°F-11.6°C 55% 3.5 mph WSW5.6 kmh WSW 2.3 mph3.7 kmh 30.28 in1025.4 mb - 0.00 in0.0 mm 0.00 in0.0 mm
08:20 AM 24.7°F-4.1°C 11.2°F-11.6°C 56% 1.2 mph SW1.9 kmh SW 2.3 mph3.7 kmh 30.28 in1025.4 mb - 0.00 in0.0 mm 0.00 in0.0 mm
08:30 AM 24.4°F-4.2°C 12.1°F-11.1°C 59% Calm Calm -- 30.28 in1025.4 mb - 0.00 in0.0 mm 0.00 in0.0 mm
08:40 AM 23.6°F-4.7°C 12.1°F-11.1°C 61% 1.2 mph W1.9 kmh W 2.3 mph3.7 kmh 30.29 in1025.7 mb - 0.00 in0.0 mm 0.00 in0.0 mm
08:50 AM 23.2°F-4.9°C 12.5°F-10.8°C 63% Calm Calm -- 30.29 in1025.7 mb - 0.00 in0.0 mm 0.00 in0.0 mm
09:00 AM 23.5°F-4.7°C 12.7°F-10.7°C 63% 1.2 mph W1.9 kmh W 2.3 mph3.7 kmh 30.28 in1025.4 mb - 0.00 in0.0 mm 0.00 in0.0 mm
09:10 AM 25.0°F-3.9°C 13.0°F-10.6°C 60% 2.3 mph N3.7 kmh N 2.3 mph3.7 kmh 30.29 in1025.7 mb - 0.00 in0.0 mm 0.00 in0.0 mm
09:20 AM 26.1°F-3.3°C 12.5°F-10.8°C 56% 2.3 mph NNE3.7 kmh NNE 4.6 mph7.4 kmh 30.30 in1026.1 mb - 0.00 in0.0 mm 0.00 in0.0 mm
09:30 AM 26.2°F-3.2°C 12.6°F-10.8°C 56% 1.2 mph SW1.9 kmh SW 1.2 mph1.9 kmh 30.30 in1026.1 mb - 0.00 in0.0 mm 0.00 in0.0 mm
09:40 AM 26.7°F-2.9°C 12.7°F-10.7°C 55% 1.2 mph SE1.9 kmh SE 2.3 mph3.7 kmh 30.29 in1025.7 mb - 0.00 in0.0 mm 0.00 in0.0 mm
09:50 AM 27.0°F-2.8°C 10.8°F-11.8°C 50% 2.3 mph SW3.7 kmh SW 5.8 mph9.3 kmh 30.29 in1025.7 mb - 0.00 in0.0 mm 0.00 in0.0 mm
10:00 AM 27.3°F-2.6°C 10.6°F-11.9°C 49% 1.2 mph SW1.9 kmh SW 5.8 mph9.3 kmh 30.29 in1025.7 mb - 0.00 in0.0 mm 0.00 in0.0 mm
10:10 AM 27.5°F-2.5°C 10.3°F-12.1°C 48% 1.2 mph NE1.9 kmh NE 1.2 mph1.9 kmh 30.29 in1025.7 mb - 0.00 in0.0 mm 0.00 in0.0 mm
10:20 AM 27.8°F-2.3°C 9.7°F-12.4°C 46% 3.5 mph NNE5.6 kmh NNE 2.3 mph3.7 kmh 30.29 in1025.7 mb - 0.00 in0.0 mm 0.00 in0.0 mm
10:30 AM 28.0°F-2.2°C 9.9°F-12.3°C 46% Calm Calm -- 30.29 in1025.7 mb - 0.00 in0.0 mm 0.00 in0.0 mm
10:40 AM 28.4°F-2.0°C 9.7°F-12.4°C 45% 3.5 mph WSW5.6 kmh WSW 5.8 mph9.3 kmh 30.29 in1025.7 mb - 0.00 in0.0 mm 0.00 in0.0 mm
10:50 AM 28.9°F-1.7°C 9.2°F-12.7°C 43% 2.3 mph WNW3.7 kmh WNW 2.3 mph3.7 kmh 30.29 in1025.7 mb - 0.00 in0.0 mm 0.00 in0.0 mm
11:00 AM 29.7°F-1.3°C 8.8°F-12.9°C 41% 3.5 mph ENE5.6 kmh ENE 5.8 mph9.3 kmh 30.30 in1026.1 mb - 0.00 in0.0 mm 0.00 in0.0 mm
11:10 AM 29.9°F-1.2°C 7.9°F-13.4°C 39% 3.5 mph WSW5.6 kmh WSW 2.3 mph3.7 kmh 30.30 in1026.1 mb - 0.00 in0.0 mm 0.00 in0.0 mm
11:20 AM 30.6°F-0.8°C 9.1°F-12.7°C 40% 2.3 mph SW3.7 kmh SW 5.8 mph9.3 kmh 30.30 in1026.1 mb - 0.00 in0.0 mm 0.00 in0.0 mm
11:30 AM 32.0°F0.0°C 8.0°F-13.3°C 36% 3.5 mph NW5.6 kmh NW 4.6 mph7.4 kmh 30.30 in1026.1 mb - 0.00 in0.0 mm 0.00 in0.0 mm
11:40 AM 32.9°F0.5°C 8.2°F-13.2°C 35% 3.5 mph W5.6 kmh W 2.3 mph3.7 kmh 30.30 in1026.1 mb - 0.00 in0.0 mm 0.00 in0.0 mm
11:50 AM 33.8°F1.0°C 7.6°F-13.6°C 33% 1.2 mph E1.9 kmh E 2.3 mph3.7 kmh 30.29 in1025.7 mb - 0.00 in0.0 mm 0.00 in0.0 mm
12:00 PM 34.1°F1.2°C 7.3°F-13.7°C 32% 1.2 mph SE1.9 kmh SE 1.2 mph1.9 kmh 30.30 in1026.1 mb - 0.00 in0.0 mm 0.00 in0.0 mm
12:10 PM 34.6°F1.4°C 9.0°F-12.8°C 34% Calm Calm 1.2 mph1.9 kmh 30.29 in1025.7 mb - 0.00 in0.0 mm 0.00 in0.0 mm
12:30 PM 34.6°F1.4°C 7.0°F-13.9°C 31% 2.3 mph S3.7 kmh S 4.6 mph7.4 kmh 30.29 in1025.7 mb - 0.00 in0.0 mm 0.00 in0.0 mm
12:40 PM 34.5°F1.4°C 6.2°F-14.3°C 30% 1.2 mph WSW1.9 kmh WSW 1.2 mph1.9 kmh 30.29 in1025.7 mb - 0.00 in0.0 mm 0.00 in0.0 mm
12:50 PM 34.7°F1.5°C 6.4°F-14.2°C 30% 3.5 mph ENE5.6 kmh ENE 5.8 mph9.3 kmh 30.29 in1025.7 mb - 0.00 in0.0 mm 0.00 in0.0 mm
01:00 PM 34.6°F1.4°C 7.7°F-13.5°C 32% 1.2 mph E1.9 kmh E -- 30.29 in1025.7 mb - 0.00 in0.0 mm 0.00 in0.0 mm
01:10 PM 35.1°F1.7°C 6.8°F-14.0°C 30% 2.3 mph E3.7 kmh E 2.3 mph3.7 kmh 30.29 in1025.7 mb - 0.00 in0.0 mm 0.00 in0.0 mm
01:20 PM 35.3°F1.8°C 5.4°F-14.8°C 28% 2.3 mph WSW3.7 kmh WSW 2.3 mph3.7 kmh 30.29 in1025.7 mb - 0.00 in0.0 mm 0.00 in0.0 mm
01:30 PM 35.5°F1.9°C 8.5°F-13.1°C 32% 2.3 mph NE3.7 kmh NE 2.3 mph3.7 kmh 30.28 in1025.4 mb - 0.00 in0.0 mm 0.00 in0.0 mm
01:40 PM 36.3°F2.4°C 6.3°F-14.3°C 28% 1.2 mph S1.9 kmh S 2.3 mph3.7 kmh 30.29 in1025.7 mb - 0.00 in0.0 mm 0.00 in0.0 mm
01:50 PM 36.4°F2.4°C 6.3°F-14.3°C 28% 2.3 mph NW3.7 kmh NW 5.8 mph9.3 kmh 30.29 in1025.7 mb - 0.00 in0.0 mm 0.00 in0.0 mm
02:00 PM 36.7°F2.6°C 6.6°F-14.1°C 28% 1.2 mph E1.9 kmh E 4.6 mph7.4 kmh 30.29 in1025.7 mb - 0.00 in0.0 mm 0.00 in0.0 mm
02:10 PM 36.5°F2.5°C 4.8°F-15.1°C 26% 3.5 mph SSE5.6 kmh SSE 4.6 mph7.4 kmh 30.29 in1025.7 mb - 0.00 in0.0 mm 0.00 in0.0 mm
02:20 PM 36.5°F2.5°C 6.4°F-14.2°C 28% 1.2 mph ESE1.9 kmh ESE 1.2 mph1.9 kmh 30.28 in1025.4 mb - 0.00 in0.0 mm 0.00 in0.0 mm
02:30 PM 36.5°F2.5°C 6.5°F-14.2°C 28% Calm Calm 1.2 mph1.9 kmh 30.28 in1025.4 mb - 0.00 in0.0 mm 0.00 in0.0 mm
02:40 PM 36.3°F2.4°C 5.4°F-14.8°C 27% 4.6 mph WNW7.4 kmh WNW 5.8 mph9.3 kmh 30.28 in1025.4 mb - 0.00 in0.0 mm 0.00 in0.0 mm
02:50 PM 35.7°F2.1°C 4.9°F-15.1°C 27% 1.2 mph E1.9 kmh E -- 30.27 in1025.1 mb - 0.00 in0.0 mm 0.00 in0.0 mm
03:00 PM 35.7°F2.1°C 7.3°F-13.7°C 30% Calm Calm 2.3 mph3.7 kmh 30.27 in1025.1 mb - 0.00 in0.0 mm 0.00 in0.0 mm
03:10 PM 35.1°F1.7°C 4.4°F-15.3°C 27% 1.2 mph E1.9 kmh E -- 30.27 in1025.1 mb - 0.00 in0.0 mm 0.00 in0.0 mm
03:20 PM 34.3°F1.3°C 5.3°F-14.8°C 29% Calm Calm -- 30.26 in1024.7 mb - 0.00 in0.0 mm 0.00 in0.0 mm
03:40 PM 33.7°F0.9°C 5.5°F-14.7°C 30% 2.3 mph E3.7 kmh E 2.3 mph3.7 kmh 30.26 in1024.7 mb - 0.00 in0.0 mm 0.00 in0.0 mm
03:50 PM 33.4°F0.8°C 4.5°F-15.3°C 29% 2.3 mph ESE3.7 kmh ESE 2.3 mph3.7 kmh 30.26 in1024.7 mb - 0.00 in0.0 mm 0.00 in0.0 mm
04:00 PM 33.3°F0.7°C 4.4°F-15.3°C 29% 3.5 mph ESE5.6 kmh ESE 2.3 mph3.7 kmh 30.27 in1025.1 mb - 0.00 in0.0 mm 0.00 in0.0 mm
04:10 PM 33.2°F0.7°C 5.8°F-14.6°C 31% Calm Calm -- 30.26 in1024.7 mb - 0.00 in0.0 mm 0.00 in0.0 mm
04:20 PM 32.9°F0.5°C 5.5°F-14.7°C 31% Calm Calm -- 30.26 in1024.7 mb - 0.00 in0.0 mm 0.00 in0.0 mm
04:30 PM 32.7°F0.4°C 6.0°F-14.4°C 32% Calm Calm -- 30.25 in1024.4 mb - 0.00 in0.0 mm 0.00 in0.0 mm
04:40 PM 32.0°F0.0°C 7.4°F-13.7°C 35% Calm Calm -- 30.25 in1024.4 mb - 0.00 in0.0 mm 0.00 in0.0 mm
04:50 PM 30.9°F-0.6°C 7.0°F-13.9°C 36% Calm Calm -- 30.25 in1024.4 mb - 0.00 in0.0 mm 0.00 in0.0 mm
05:00 PM 29.6°F-1.3°C 7.0°F-13.9°C 38% Calm Calm -- 30.25 in1024.4 mb - 0.00 in0.0 mm 0.00 in0.0 mm
05:10 PM 28.4°F-2.0°C 7.1°F-13.8°C 40% Calm Calm -- 30.25 in1024.4 mb - 0.00 in0.0 mm 0.00 in0.0 mm
05:20 PM 27.8°F-2.3°C 7.6°F-13.6°C 42% Calm Calm -- 30.24 in1024.0 mb - 0.00 in0.0 mm 0.00 in0.0 mm
05:30 PM 26.8°F-2.9°C 6.7°F-14.1°C 42% Calm Calm -- 30.24 in1024.0 mb - 0.00 in0.0 mm 0.00 in0.0 mm
05:40 PM 26.1°F-3.3°C 9.1°F-12.7°C 48% Calm Calm -- 30.24 in1024.0 mb - 0.00 in0.0 mm 0.00 in0.0 mm
05:50 PM 26.3°F-3.2°C 9.7°F-12.4°C 49% Calm Calm -- 30.24 in1024.0 mb - 0.00 in0.0 mm 0.00 in0.0 mm
06:00 PM 25.7°F-3.5°C 10.0°F-12.2°C 51% Calm Calm -- 30.24 in1024.0 mb - 0.00 in0.0 mm 0.00 in0.0 mm
06:10 PM 24.7°F-4.1°C 9.5°F-12.5°C 52% Calm Calm -- 30.24 in1024.0 mb - 0.00 in0.0 mm 0.00 in0.0 mm
06:20 PM 25.0°F-3.9°C 11.1°F-11.6°C 55% Calm Calm -- 30.23 in1023.7 mb - 0.00 in0.0 mm 0.00 in0.0 mm
06:30 PM 24.4°F-4.2°C 11.3°F-11.5°C 57% Calm Calm -- 30.23 in1023.7 mb - 0.00 in0.0 mm 0.00 in0.0 mm
06:40 PM 24.0°F-4.4°C 10.9°F-11.7°C 57% Calm Calm -- 30.22 in1023.4 mb - 0.00 in0.0 mm 0.00 in0.0 mm
06:50 PM 24.2°F-4.3°C 11.5°F-11.4°C 58% Calm Calm -- 30.21 in1023.0 mb - 0.00 in0.0 mm 0.00 in0.0 mm
07:00 PM 23.9°F-4.5°C 12.4°F-10.9°C 61% Calm Calm -- 30.23 in1023.7 mb - 0.00 in0.0 mm 0.00 in0.0 mm
07:10 PM 23.5°F-4.7°C 12.0°F-11.1°C 61% Calm Calm -- 30.23 in1023.7 mb - 0.00 in0.0 mm 0.00 in0.0 mm
07:20 PM 23.0°F-5.0°C 11.9°F-11.2°C 62% Calm Calm -- 30.24 in1024.0 mb - 0.00 in0.0 mm 0.00 in0.0 mm
07:30 PM 22.5°F-5.3°C 11.8°F-11.2°C 63% Calm Calm -- 30.24 in1024.0 mb - 0.00 in0.0 mm 0.00 in0.0 mm
07:40 PM 23.1°F-4.9°C 12.0°F-11.1°C 62% 2.3 mph ESE3.7 kmh ESE 2.3 mph3.7 kmh 30.23 in1023.7 mb - 0.00 in0.0 mm 0.00 in0.0 mm
07:50 PM 23.8°F-4.6°C 14.8°F-9.6°C 68% Calm Calm -- 30.23 in1023.7 mb - 0.00 in0.0 mm 0.00 in0.0 mm
08:00 PM 23.1°F-4.9°C 13.8°F-10.1°C 67% Calm Calm -- 30.22 in1023.4 mb - 0.00 in0.0 mm 0.00 in0.0 mm
08:10 PM 23.8°F-4.6°C 14.4°F-9.8°C 67% 1.2 mph ESE1.9 kmh ESE 1.2 mph1.9 kmh 30.22 in1023.4 mb - 0.00 in0.0 mm 0.00 in0.0 mm
08:20 PM 23.9°F-4.5°C 13.1°F-10.5°C 63% Calm Calm -- 30.21 in1023.0 mb - 0.00 in0.0 mm 0.00 in0.0 mm
08:30 PM 23.9°F-4.5°C 13.5°F-10.3°C 64% Calm Calm -- 30.21 in1023.0 mb - 0.00 in0.0 mm 0.00 in0.0 mm
08:40 PM 23.6°F-4.7°C 13.9°F-10.1°C 66% Calm Calm -- 30.22 in1023.4 mb - 0.00 in0.0 mm 0.00 in0.0 mm
08:50 PM 23.9°F-4.5°C 15.2°F-9.3°C 69% Calm Calm -- 30.21 in1023.0 mb - 0.00 in0.0 mm 0.00 in0.0 mm
09:00 PM 24.9°F-3.9°C 14.8°F-9.6°C 65% 1.2 mph ESE1.9 kmh ESE 1.2 mph1.9 kmh 30.21 in1023.0 mb - 0.00 in0.0 mm 0.00 in0.0 mm
09:10 PM 25.2°F-3.8°C 16.1°F-8.8°C 68% Calm Calm -- 30.21 in1023.0 mb - 0.00 in0.0 mm 0.00 in0.0 mm
09:20 PM 25.2°F-3.8°C 17.1°F-8.3°C 71% Calm Calm -- 30.20 in1022.7 mb - 0.00 in0.0 mm 0.00 in0.0 mm
09:30 PM 25.6°F-3.6°C 16.8°F-8.4°C 69% Calm Calm -- 30.20 in1022.7 mb - 0.00 in0.0 mm 0.00 in0.0 mm
09:40 PM 25.9°F-3.4°C 17.8°F-7.9°C 71% Calm Calm 2.3 mph3.7 kmh 30.19 in1022.4 mb - 0.00 in0.0 mm 0.00 in0.0 mm
09:50 PM 25.7°F-3.5°C 17.9°F-7.8°C 72% 2.3 mph ESE3.7 kmh ESE 1.2 mph1.9 kmh 30.18 in1022.0 mb - 0.00 in0.0 mm 0.00 in0.0 mm
10:00 PM 25.5°F-3.6°C 17.7°F-7.9°C 72% Calm Calm -- 30.17 in1021.7 mb - 0.00 in0.0 mm 0.00 in0.0 mm
10:10 PM 25.3°F-3.7°C 17.9°F-7.8°C 73% Calm Calm 2.3 mph3.7 kmh 30.17 in1021.7 mb - 0.00 in0.0 mm 0.00 in0.0 mm
10:20 PM 25.3°F-3.7°C 18.2°F-7.7°C 74% Calm Calm -- 30.17 in1021.7 mb - 0.00 in0.0 mm 0.00 in0.0 mm
10:30 PM 25.1°F-3.8°C 18.9°F-7.3°C 77% Calm Calm 1.2 mph1.9 kmh 30.16 in1021.3 mb - 0.00 in0.0 mm 0.00 in0.0 mm
10:40 PM 25.7°F-3.5°C 19.5°F-6.9°C 77% 2.3 mph ESE3.7 kmh ESE 2.3 mph3.7 kmh 30.15 in1021.0 mb - 0.00 in0.0 mm 0.00 in0.0 mm
10:50 PM 26.1°F-3.3°C 19.9°F-6.7°C 77% 2.3 mph ESE3.7 kmh ESE 2.3 mph3.7 kmh 30.14 in1020.7 mb - 0.00 in0.0 mm 0.00 in0.0 mm
11:00 PM 26.1°F-3.3°C 20.2°F-6.6°C 78% Calm Calm 1.2 mph1.9 kmh 30.15 in1021.0 mb - 0.00 in0.0 mm 0.00 in0.0 mm
11:10 PM 25.9°F-3.4°C 20.0°F-6.7°C 78% Calm Calm -- 30.14 in1020.7 mb - 0.00 in0.0 mm 0.00 in0.0 mm
11:20 PM 25.8°F-3.4°C 20.2°F-6.6°C 79% Calm Calm -- 30.13 in1020.3 mb - 0.00 in0.0 mm 0.00 in0.0 mm
11:30 PM 25.3°F-3.7°C 20.0°F-6.7°C 80% Calm Calm -- 30.13 in1020.3 mb - 0.00 in0.0 mm 0.00 in0.0 mm
11:40 PM 24.9°F-3.9°C 20.2°F-6.6°C 82% Calm Calm -- 30.13 in1020.3 mb - 0.00 in0.0 mm 0.00 in0.0 mm
11:50 PM 25.0°F-3.9°C 20.8°F-6.2°C 84% Calm Calm -- 30.14 in1020.7 mb - 0.00 in0.0 mm 0.00 in0.0 mm